Felton, Delaware
Current Conditions -  °F | °C
As of 3:58 PM on Tuesday 21 Oct 2014 (Local Time) from KDOV Reporting Station
Clear Clear  
Wind Chill: 65°   Ceiling: Unl
Heat Index: 65°   Visibility: 10mi
Dew Point: 51°   Wind: 7mph
Humidity: 60%   Direction: 60°ENE
Pressure: 29.79"   Gusts: NA
Location:  39.01°N, 75.58°W
Report Text: KDOV 211958Z AUTO 06006KT 10SM CLR 18/10 A2979 RMK AO2 SLP091 T01820103
Loading
Personal Weather Stations






























Interactive Weather Map
Tropical Storm Tracking
New forecast layout! Learn more

10-Day Weather Forecast

Advertisements
Track Severe Weather on mobile